Time;durP1;ratioP1;P1;durP2;ratioP2;P2;SDS_P1;SDS_P2;PMS_P1;PMS_P2;Temp;Humidity;BMP_temperature;BMP_pressure;BME280_temperature;BME280_humidity;BME280_pressure;Samples;Min_cycle;Max_cycle;Signal;HPM_P1;HPM_P2
2024/02/28 00:02:50;;;;;;;58.00;24.90;;;;;;;7.60;87.22;100306.01;126722;1292;115331;-68
2024/02/28 00:06:52;;;;;;;71.00;31.30;;;;;;;7.60;87.22;100307.42;126301;1314;114923;-68
2024/02/28 00:15:24;;;;;;;;;;;;;;;;;;;;;
2024/02/28 00:19:25;;;;;;;;;;;;;;;;;;;;;
2024/02/28 00:23:28;;;;;;;63.30;28.40;;;;;;;7.62;87.73;100309.67;126742;1292;114955;-68
2024/02/28 00:31:29;;;;;;;;;;;;;;;;;;;;;
2024/02/28 00:35:33;;;;;;;64.00;28.60;;;;;;;7.62;87.61;100312.73;124263;1310;114941;-68
2024/02/28 00:44:05;;;;;;;57.80;28.10;;;;;;;7.68;87.60;100315.68;125599;1303;640332;-68
2024/02/28 00:48:09;;;;;;;70.10;29.60;;;;;;;7.66;87.65;100313.98;128074;1282;129051;-67
2024/02/28 00:51:59;;;;;;;;;;;;;;;;;;;;;
2024/02/28 00:55:56;;;;;;;62.50;27.00;;;;;;;7.66;87.66;100317.88;123563;1301;5405203;-67
2024/02/28 00:59:49;;;;;;;;;;;;;;;;;;;;;
2024/02/28 01:16:59;;;;;;;73.70;31.40;;;;;;;7.67;87.94;100312.68;125939;1301;636529;-67
2024/02/28 01:20:53;;;;;;;;;;;;;;;;;;;;;
2024/02/28 01:33:22;;;;;;;;;;;;;;;;;;;;;
2024/02/28 01:37:07;;;;;;;;;;;;;;;;;;;;;
2024/02/28 01:41:12;;;;;;;81.90;30.40;;;;;;;7.62;88.33;100313.40;127519;1286;114922;-68
2024/02/28 01:45:23;;;;;;;73.20;29.10;;;;;;;7.59;88.44;100311.55;126232;1298;114900;-68
2024/02/28 01:53:24;;;;;;;;;;;;;;;;;;;;;
2024/02/28 01:57:27;;;;;;;93.50;33.00;;;;;;;7.59;88.84;100304.44;127844;1284;129987;-67
2024/02/28 02:01:31;;;;;;;82.90;30.00;;;;;;;7.62;88.60;100303.29;126860;1292;114933;-67
2024/02/28 02:10:05;;;;;;;;;;;;;;;;;;;;;
2024/02/28 02:18:11;;;;;;;96.40;33.40;;;;;;;7.63;88.72;100293.84;126736;1292;114983;-68
2024/02/28 02:22:30;;;;;;;82.10;31.80;;;;;;;7.62;89.01;100291.39;122648;1293;5423000;-67
2024/02/28 02:26:15;;;;;;;90.50;34.30;;;;;;;7.61;89.08;100293.35;125983;1296;115423;-68
2024/02/28 02:34:15;;;;;;;;;;;;;;;;;;;;;
2024/02/28 02:38:10;;;;;;;82.80;31.80;;;;;;;7.60;89.26;100293.04;124852;1314;129724;-67
2024/02/28 02:46:37;;;;;;;88.90;35.30;;;;;;;7.63;89.70;100286.35;125980;1301;636828;-67
2024/02/28 02:50:33;;;;;;;;;;;;;;;;;;;;;
2024/02/28 02:54:36;;;;;;;87.30;32.50;;;;;;;7.59;89.92;100284.73;126924;1289;114950;-68
2024/02/28 02:58:30;;;;;;;86.70;33.10;;;;;;;7.57;89.80;100291.73;122158;1302;5421272;-68
2024/02/28 03:11:00;;;;;;;;;;;;;;;;;;;;;
2024/02/28 03:15:04;;;;;;;87.00;31.80;;;;;;;7.51;90.26;100296.74;126482;1296;114868;-68
2024/02/28 03:19:06;;;;;;;86.40;31.30;;;;;;;7.52;90.29;100300.45;121671;1306;5411396;-67
2024/02/28 03:27:40;;;;;;;84.90;32.80;;;;;;;7.58;90.54;100305.19;125743;1303;637522;-68
2024/02/28 03:31:42;;;;;;;89.70;35.60;;;;;;;7.58;90.83;100306.80;127573;1287;127746;-68
2024/02/28 03:35:43;;;;;;;94.70;32.50;;;;;;;7.58;90.68;100309.46;126000;1301;114940;-68
2024/02/28 03:48:18;;;;;;;96.10;35.50;;;;;;;7.64;90.99;100310.30;125868;1311;636049;-67
2024/02/28 03:52:20;;;;;;;96.30;34.20;;;;;;;7.62;90.96;100307.55;127197;1287;127707;-67
2024/02/28 03:56:19;;;;;;;;;;;;;;;;;;;;;
2024/02/28 04:04:47;;;;;;;94.40;37.20;;;;;;;7.67;91.45;100312.31;125903;1299;638500;-67
2024/02/28 04:08:42;;;;;;;96.60;35.90;;;;;;;7.68;91.42;100318.52;127951;1280;126635;-67
2024/02/28 04:12:45;;;;;;;88.50;32.60;;;;;;;7.70;91.34;100324.49;127053;1285;116518;-66
2024/02/28 04:16:47;;;;;;;87.40;32.20;;;;;;;7.68;91.32;100328.47;122497;1294;5410314;-67
2024/02/28 04:20:47;;;;;;;96.80;35.00;;;;;;;7.69;91.48;100328.09;125010;1311;114857;-67
2024/02/28 04:29:14;;;;;;;;;;;;;;;;;;;;;
2024/02/28 04:33:18;;;;;;;95.50;35.80;;;;;;;7.72;91.84;100341.46;127759;1287;127754;-67
2024/02/28 04:37:19;;;;;;;91.30;35.20;;;;;;;7.74;91.65;100341.05;127273;1288;114938;-67
2024/02/28 04:41:23;;;;;;;89.80;33.30;;;;;;;7.72;91.62;100347.69;123028;1292;5411021;-67
2024/02/28 04:45:24;;;;;;;99.80;34.20;;;;;;;7.72;91.85;100347.35;126225;1293;115166;-67
2024/02/28 04:49:24;;;;;;;;;;;;;;;;;;;;;
2024/02/28 04:57:58;;;;;;;80.80;33.60;;;;;;;7.77;91.89;100357.30;126227;1298;640533;-66
2024/02/28 05:06:02;;;;;;;86.50;32.50;;;;;;;7.76;91.83;100367.47;127383;1289;114757;-66
2024/02/28 05:10:03;;;;;;;83.40;31.40;;;;;;;7.75;92.14;100362.89;122348;1296;5480903;-65
2024/02/28 05:18:05;;;;;;;84.20;33.30;;;;;;;7.72;92.14;100365.82;125439;1308;114993;-67
2024/02/28 05:21:50;;;;;;;73.90;30.90;;;;;;;7.72;91.97;100371.52;124887;1313;128863;-66
2024/02/28 05:30:27;;;;;;;66.30;28.90;;;;;;;7.73;92.23;100376.98;125685;1304;639439;-67
2024/02/28 05:34:30;;;;;;;62.20;27.70;;;;;;;7.71;92.61;100385.95;127888;1284;129230;-66
2024/02/28 05:38:26;;;;;;;63.90;27.20;;;;;;;7.72;92.03;100388.93;126647;1296;114945;-65
2024/02/28 05:42:31;;;;;;;;;;;;;;;;;;;;;
2024/02/28 05:46:30;;;;;;;63.40;25.30;;;;;;;7.72;92.46;100391.42;125725;1299;114965;-67
2024/02/28 05:50:21;;;;;;;66.40;26.80;;;;;;;7.70;92.41;100395.58;125037;1324;114986;-66
2024/02/28 06:02:50;;;;;;;59.50;26.10;;;;;;;7.72;92.58;100407.62;128044;1293;127840;-66
2024/02/28 06:06:50;;;;;;;;;;;;;;;;;;;;;
2024/02/28 06:10:46;;;;;;;;;;;;;;;;;;;;;
2024/02/28 06:18:46;;;;;;;54.80;23.80;;;;;;;7.75;92.47;100421.56;126258;1311;115049;-66
2024/02/28 06:27:20;;;;;;;48.70;23.00;;;;;;;7.80;92.98;100422.98;125643;1305;638011;-65
2024/02/28 06:31:23;;;;;;;50.80;23.50;;;;;;;7.81;92.75;100430.04;128238;1282;128517;-66
2024/02/28 06:35:25;;;;;;;46.50;21.80;;;;;;;7.85;93.05;100432.94;127713;1287;114849;-66
2024/02/28 06:39:27;;;;;;;44.90;21.00;;;;;;;7.88;93.06;100435.13;123217;1290;5483554;-66
2024/02/28 06:43:29;;;;;;;42.10;20.20;;;;;;;7.93;93.33;100438.88;125843;1302;114783;-65
2024/02/28 06:52:02;;;;;;;;;;;;;;;;;;;;;
2024/02/28 06:55:58;;;;;;;39.10;20.00;;;;;;;8.09;93.44;100445.59;127481;1286;129113;-66
2024/02/28 06:59:51;;;;;;;;;;;;;;;;;;;;;
2024/02/28 07:03:46;;;;;;;;;;;;;;;;;;;;;
2024/02/28 07:07:49;;;;;;;33.20;17.90;;;;;;;8.19;93.41;100454.27;124887;1308;114790;-67
2024/02/28 07:16:29;;;;;;;32.70;20.40;;;;;;;8.29;93.40;100464.77;125550;1313;638837;-68
2024/02/28 07:24:33;;;;;;;33.10;17.90;;;;;;;8.31;93.67;100466.48;126065;1294;114884;-66
2024/02/28 07:33:14;;;;;;;31.70;18.10;;;;;;;8.44;93.68;100481.30;125673;1304;638554;-66
2024/02/28 07:36:51;;;;;;;29.80;16.80;;;;;;;8.49;93.89;100487.89;127845;1285;127875;-69
2024/02/28 07:45:08;;;;;;;31.70;18.10;;;;;;;8.67;93.76;100490.05;125932;1297;637618;-66
2024/02/28 07:49:00;;;;;;;;;;;;;;;;;;;;;
2024/02/28 07:52:55;;;;;;;31.20;18.10;;;;;;;8.80;93.71;100495.60;127060;1291;115390;-68
2024/02/28 07:56:59;;;;;;;31.40;17.80;;;;;;;8.85;93.66;100500.94;122470;1306;5405316;-66
2024/02/28 08:00:59;;;;;;;28.90;16.20;;;;;;;8.91;93.70;100500.91;125747;1304;114883;-67
2024/02/28 08:09:38;;;;;;;28.20;15.30;;;;;;;9.09;93.70;100502.67;125843;1301;640689;-67
2024/02/28 08:13:41;;;;;;;27.70;14.70;;;;;;;9.17;93.72;100506.80;126853;1290;128921;-67
2024/02/28 08:17:32;;;;;;;27.40;17.20;;;;;;;9.25;93.63;100508.63;125726;1302;115168;-67
2024/02/28 08:21:06;;;;;;;;;;;;;;;9.33;93.90;100509.91;119848;1302;8328182;-66
2024/02/28 08:25:00;;;;;;;23.70;14.40;;;;;;;9.37;93.64;100509.39;125169;1323;114974;-67
2024/02/28 08:29:00;;;;;;;25.50;17.10;;;;;;;9.42;93.66;100515.06;124498;1327;115760;-66
2024/02/28 08:37:29;;;;;;;24.70;15.00;;;;;;;9.51;93.49;100523.09;125947;1299;638726;-66
2024/02/28 08:41:24;;;;;;;23.30;15.20;;;;;;;9.51;93.19;100523.98;127360;1286;127983;-66
2024/02/28 08:45:23;;;;;;;24.50;14.30;;;;;;;9.53;93.40;100525.66;126967;1292;115005;-67
2024/02/28 08:49:27;;;;;;;23.50;14.90;;;;;;;9.56;93.38;100529.11;122360;1314;5479931;-67
2024/02/28 08:53:20;;;;;;;;;;;;;;;;;;;;;
2024/02/28 09:02:20;;;;;;;17.50;12.30;;;;;;;9.56;92.90;100534.45;125727;1304;639320;-66
2024/02/28 09:05:40;;;;;;;;;;;;;;;9.49;92.54;100535.64;127667;1284;129060;-67
2024/02/28 09:13:42;;;;;;;18.20;11.60;;;;;;;9.48;92.83;100539.27;122520;1298;5407026;-66
2024/02/28 09:17:43;;;;;;;13.50;9.20;;;;;;;9.50;92.61;100543.62;125109;1311;114943;-67
2024/02/28 09:26:18;;;;;;;13.30;8.80;;;;;;;9.53;92.47;100545.81;125807;1301;639933;-66
2024/02/28 09:34:14;;;;;;;;;;;;;;;;;;;;;
2024/02/28 09:42:30;;;;;;;10.40;7.50;;;;;;;9.62;92.31;100558.31;125594;1312;638727;-69
2024/02/28 09:50:34;;;;;;;12.20;8.10;;;;;;;9.57;91.98;100574.71;126763;1290;114918;-67
2024/02/28 09:54:35;;;;;;;10.90;7.10;;;;;;;9.53;92.21;100583.41;121397;1307;5447283;-68
2024/02/28 10:07:12;;;;;;;24.90;14.50;;;;;;;9.49;91.83;100587.36;127607;1281;128864;-66
2024/02/28 10:11:13;;;;;;;16.50;11.30;;;;;;;9.48;91.87;100592.72;126363;1296;114977;-66
2024/02/28 10:15:14;;;;;;;;;;;;;;;;;;;;;
2024/02/28 10:19:16;;;;;;;18.90;12.50;;;;;;;9.46;91.57;100601.55;125476;1305;115015;-66
2024/02/28 10:23:09;;;;;;;;;;;;;;;;;;;;;
2024/02/28 10:27:27;;;;;;;;;;;;;;;;;;;;;
2024/02/28 10:31:51;;;;;;;15.30;10.10;;;;;;;9.41;91.46;100603.88;128780;1270;129334;-67
2024/02/28 10:35:53;;;;;;;14.00;9.50;;;;;;;9.45;91.51;100604.63;127742;1304;114858;-68
2024/02/28 10:48:29;;;;;;;11.40;7.70;;;;;;;9.45;91.55;100618.33;125668;1304;635366;-66
2024/02/28 10:52:31;;;;;;;12.50;8.10;;;;;;;9.47;91.32;100619.70;128515;1277;130716;-67
2024/02/28 10:56:36;;;;;;;10.50;8.60;;;;;;;9.50;91.58;100625.27;127619;1288;114844;-66
2024/02/28 11:00:38;;;;;;;9.90;6.80;;;;;;;9.49;91.35;100624.77;123148;1285;5440748;-67
2024/02/28 11:04:35;;;;;;;9.00;7.60;;;;;;;9.45;91.16;100632.25;125725;1302;115488;-67
2024/02/28 11:12:25;;;;;;;;;;;;;;;;;;;;;
2024/02/28 11:16:54;;;;;;;;;;;;;;;;;;;;;
2024/02/28 11:20:59;;;;;;;15.20;9.00;;;;;;;9.29;90.97;100641.78;128207;1282;127633;-67
2024/02/28 11:29:00;;;;;;;15.60;10.50;;;;;;;9.21;90.98;100649.93;121854;1301;5421759;-67
2024/02/28 11:41:03;;;;;;;;;;;;;;;;;;;;;
2024/02/28 11:45:17;;;;;;;13.10;10.10;;;;;;;9.14;90.68;100655.33;125771;1297;642419;-67
2024/02/28 11:49:20;;;;;;;18.30;10.10;;;;;;;9.08;90.65;100655.77;128715;1278;127934;-70
2024/02/28 11:53:23;;;;;;;24.80;15.10;;;;;;;9.05;90.62;100659.07;126764;1310;114880;-70
2024/02/28 11:57:03;;;;;;;24.80;15.10;;;;;;;9.05;90.79;100663.20;121912;1303;5423399;-67
2024/02/28 12:01:04;;;;;;;14.30;9.60;;;;;;;9.05;90.73;100668.34;125031;1310;114911;-68
2024/02/28 12:09:40;;;;;;;14.20;10.60;;;;;;;9.04;90.61;100668.58;125857;1302;639587;-69
2024/02/28 12:13:34;;;;;;;;;;;;;;;;;;;;;
2024/02/28 12:25:31;;;;;;;39.70;16.30;;;;;;;8.87;90.29;100684.30;125594;1302;114946;-68
2024/02/28 12:29:25;;;;;;;;;;;;;;;;;;;;;
2024/02/28 12:33:27;;;;;;;41.10;18.60;;;;;;;8.76;90.27;100682.05;124146;1329;129503;-72
2024/02/28 12:37:28;;;;;;;26.00;12.90;;;;;;;8.76;90.68;100682.21;124120;1336;114861;-70
2024/02/28 12:41:26;;;;;;;;;;;;;;;;;;;;;
2024/02/28 12:49:55;;;;;;;15.70;9.80;;;;;;;8.70;90.64;100684.73;125822;1307;637797;-68
2024/02/28 12:53:49;;;;;;;;;;;;;;;;;;;;;
2024/02/28 12:57:52;;;;;;;9.50;7.10;;;;;;;8.56;90.07;100694.33;126604;1312;114967;-67
2024/02/28 13:01:51;;;;;;;;;;;;;;;;;;;;;
2024/02/28 13:10:27;;;;;;;11.80;8.30;;;;;;;8.38;89.93;100704.69;125660;1312;637725;-67
2024/02/28 13:14:33;;;;;;;12.00;8.60;;;;;;;8.34;90.27;100705.19;127845;1282;129133;-69
2024/02/28 13:18:17;;;;;;;;;;;;;;;;;;;;;
2024/02/28 13:22:22;;;;;;;18.00;9.90;;;;;;;8.29;90.41;100710.67;123228;1293;5393234;-68
2024/02/28 13:26:17;;;;;;;15.50;9.50;;;;;;;8.27;90.23;100713.95;125897;1300;114939;-66
2024/02/28 13:30:06;;;;;;;13.00;9.20;;;;;;;8.23;90.25;100713.02;125177;1326;115006;-67
2024/02/28 13:38:22;;;;;;;13.80;9.70;;;;;;;8.18;90.16;100713.89;125980;1300;635770;-65
2024/02/28 13:42:25;;;;;;;15.40;9.90;;;;;;;8.13;90.33;100715.85;127649;1287;127918;-69
2024/02/28 13:46:32;;;;;;;13.20;8.30;;;;;;;8.08;90.36;100717.23;126622;1295;114847;-64
2024/02/28 13:50:33;;;;;;;13.60;9.60;;;;;;;8.05;90.29;100717.50;121680;1308;5431327;-68
2024/02/28 13:59:09;;;;;;;12.60;8.40;;;;;;;7.98;90.24;100719.34;126012;1299;638845;-68
2024/02/28 14:03:09;;;;;;;;;;;;;;;;;;;;;
2024/02/28 14:07:13;;;;;;;12.00;8.30;;;;;;;7.87;90.16;100726.25;126816;1301;114988;-69
2024/02/28 14:11:07;;;;;;;;;;;;;;;;;;;;;
2024/02/28 14:19:35;;;;;;;15.90;10.20;;;;;;;7.85;90.47;100738.26;125773;1304;637908;-66
2024/02/28 14:23:36;;;;;;;17.70;10.10;;;;;;;7.86;90.37;100743.20;128353;1277;128234;-66
2024/02/28 14:27:39;;;;;;;15.50;10.00;;;;;;;7.84;90.33;100746.11;127548;1298;114913;-67
2024/02/28 14:31:42;;;;;;;17.20;11.20;;;;;;;7.82;90.54;100748.84;122477;1316;5415121;-68
2024/02/28 14:35:41;;;;;;;;;;;;;;;;;;;;;
2024/02/28 14:44:09;;;;;;;19.20;10.90;;;;;;;7.73;90.72;100758.52;125688;1305;637944;-66
2024/02/28 14:48:11;;;;;;;20.70;10.20;;;;;;;7.68;90.58;100764.36;127765;1282;128844;-65
2024/02/28 14:52:14;;;;;;;16.50;9.00;;;;;;;7.66;90.80;100767.09;126633;1295;114931;-65
2024/02/28 14:55:59;;;;;;;19.90;10.20;;;;;;;7.64;90.87;100769.11;121934;1299;5450497;-64
2024/02/28 14:59:40;;;;;;;;;;;;;;;7.62;90.80;100770.77;125464;1310;114970;-67
2024/02/28 15:03:40;;;;;;;;;;;;;;;;;;;;;
2024/02/28 15:12:16;;;;;;;13.50;8.30;;;;;;;7.55;90.84;100780.56;125756;1304;636621;-69
2024/02/28 15:16:18;;;;;;;15.10;8.30;;;;;;;7.52;91.05;100779.41;128779;1273;127527;-67
2024/02/28 15:20:21;;;;;;;;;;;;;;;;;;;;;
2024/02/28 15:24:30;;;;;;;15.20;8.50;;;;;;;7.45;91.02;100781.01;122453;1296;5413430;-65
2024/02/28 15:28:30;;;;;;;15.80;9.20;;;;;;;7.46;91.02;100785.45;124887;1311;114952;-68
2024/02/28 15:37:05;;;;;;;17.50;9.90;;;;;;;7.44;90.73;100784.27;125816;1301;637813;-68
2024/02/28 15:41:08;;;;;;;18.60;10.40;;;;;;;7.41;91.16;100789.48;128145;1283;128880;-62
2024/02/28 15:45:11;;;;;;;15.90;8.40;;;;;;;7.43;91.26;100796.73;126439;1308;114970;-62
2024/02/28 15:49:18;;;;;;;16.90;8.90;;;;;;;7.42;91.12;100796.05;122046;1292;5472322;-62
2024/02/28 15:53:19;;;;;;;16.80;10.30;;;;;;;7.41;91.07;100802.30;124845;1325;114994;-63
2024/02/28 16:01:40;;;;;;;20.10;10.10;;;;;;;7.43;91.13;100797.98;126487;1303;636575;-62
2024/02/28 16:05:46;;;;;;;19.90;11.40;;;;;;;7.37;91.09;100800.82;127302;1287;129013;-62
2024/02/28 16:09:52;;;;;;;18.60;10.60;;;;;;;7.34;90.99;100805.52;125620;1301;114954;-62
2024/02/28 16:22:10;;;;;;;21.00;10.30;;;;;;;7.28;90.91;100807.45;126172;1295;635985;-63
2024/02/28 16:26:12;;;;;;;22.10;11.60;;;;;;;7.25;91.06;100815.17;128232;1282;128266;-64
2024/02/28 16:30:13;;;;;;;23.80;11.60;;;;;;;7.23;90.90;100816.66;127188;1300;114910;-64
2024/02/28 16:34:00;;;;;;;23.60;13.30;;;;;;;7.19;90.81;100820.84;122309;1308;5426599;-62
2024/02/28 16:37:54;;;;;;;20.00;11.60;;;;;;;7.13;90.77;100819.92;126045;1311;114808;-62
2024/02/28 16:45:58;;;;;;;;;;;;;;;;;;;;;
2024/02/28 16:49:16;;;;;;;22.70;12.00;;;;;;;7.02;90.73;100841.70;123780;1313;129719;-64
2024/02/28 16:53:07;;;;;;;;;;;;;;;;;;;;;
2024/02/28 16:56:50;;;;;;;22.30;12.10;;;;;;;6.98;90.85;100848.73;123861;1326;114809;-63
2024/02/28 17:05:12;;;;;;;22.60;13.40;;;;;;;7.02;91.04;100855.21;125440;1310;637981;-63
2024/02/28 17:09:15;;;;;;;20.90;13.10;;;;;;;6.97;90.57;100856.95;127555;1295;128574;-63
2024/02/28 17:13:16;;;;;;;24.70;13.20;;;;;;;6.94;90.55;100860.22;127368;1288;114866;-62
2024/02/28 17:17:17;;;;;;;;;;;;;;;;;;;;;
2024/02/28 17:21:19;;;;;;;26.90;13.90;;;;;;;6.89;90.60;100863.70;126155;1301;115040;-62
2024/02/28 17:25:21;;;;;;;27.50;12.50;;;;;;;6.87;90.61;100864.63;126034;1306;114924;-64
2024/02/28 17:29:20;;;;;;;;;;;;;;;;;;;;;
2024/02/28 17:37:44;;;;;;;;;;;;;;;;;;;;;
2024/02/28 17:41:47;;;;;;;36.50;17.30;;;;;;;6.84;90.62;100876.45;127585;1296;130143;-62
2024/02/28 17:45:50;;;;;;;35.90;16.90;;;;;;;6.83;90.80;100877.20;126437;1303;114906;-62
2024/02/28 17:49:43;;;;;;;31.80;17.30;;;;;;;6.79;90.41;100879.58;121497;1304;5448287;-62
2024/02/28 17:58:14;;;;;;;28.00;15.70;;;;;;;6.75;90.56;100883.05;125606;1300;638114;-62
2024/02/28 18:06:18;;;;;;;;;;;;;;;;;;;;;
2024/02/28 18:10:21;;;;;;;26.60;12.00;;;;;;;6.56;90.42;100892.55;120877;1310;5475039;-62
2024/02/28 18:18:50;;;;;;;24.10;13.40;;;;;;;6.49;90.48;100894.48;125803;1296;637949;-61
2024/02/28 18:22:53;;;;;;;24.20;12.40;;;;;;;6.45;90.88;100897.25;127510;1284;128408;-61
2024/02/28 18:26:55;;;;;;;25.30;13.00;;;;;;;6.41;90.68;100900.88;126593;1303;114913;-64
2024/02/28 18:34:55;;;;;;;;;;;;;;;;;;;;;
2024/02/28 18:43:12;;;;;;;;;;;;;;;;;;;;;
2024/02/28 18:51:08;;;;;;;21.00;11.80;;;;;;;6.41;91.12;100917.38;126615;1293;114964;-67
2024/02/28 18:55:07;;;;;;;22.30;11.50;;;;;;;6.38;91.08;100921.34;122665;1290;5790340;-65
2024/02/28 19:03:02;;;;;;;;;;;;;;;;;;;;;
2024/02/28 19:07:16;;;;;;;;;;;;;;;;;;;;;
2024/02/28 19:11:20;;;;;;;22.30;11.10;;;;;;;6.27;91.18;100926.57;129002;1271;127056;-67
2024/02/28 19:15:23;;;;;;;28.50;13.30;;;;;;;6.23;91.26;100928.23;127799;1285;114914;-69
2024/02/28 19:19:25;;;;;;;29.00;13.70;;;;;;;6.20;91.49;100924.76;123106;1291;5397331;-68
2024/02/28 19:23:25;;;;;;;31.20;13.60;;;;;;;6.20;91.45;100928.30;125473;1307;114856;-65
2024/02/28 19:27:26;;;;;;;31.10;14.10;;;;;;;6.17;91.43;100931.40;124570;1313;114829;-65
2024/02/28 19:35:49;;;;;;;30.10;15.70;;;;;;;6.20;91.70;100929.20;125893;1300;638709;-66
2024/02/28 19:39:55;;;;;;;32.80;14.60;;;;;;;6.18;91.82;100931.72;127488;1287;128739;-65
2024/02/28 19:43:53;;;;;;;29.30;15.00;;;;;;;6.18;91.80;100928.70;126803;1292;114879;-65
2024/02/28 19:47:46;;;;;;;;;;;;;;;;;;;;;
2024/02/28 19:51:46;;;;;;;;;;;;;;;;;;;;;
2024/02/28 20:00:09;;;;;;;;;;;;;;;;;;;;;
2024/02/28 20:04:14;;;;;;;24.20;11.20;;;;;;;6.08;92.05;100937.95;126971;1287;128791;-67
2024/02/28 20:08:13;;;;;;;24.80;11.90;;;;;;;6.09;92.30;100937.39;125676;1304;114946;-67
2024/02/28 20:12:15;;;;;;;25.90;12.90;;;;;;;6.11;92.20;100937.90;120261;1316;6480291;-65
2024/02/28 20:20:35;;;;;;;21.00;11.00;;;;;;;6.07;92.21;100945.95;126367;1295;636265;-64
2024/02/28 20:24:31;;;;;;;23.50;12.00;;;;;;;6.01;92.27;100951.21;128831;1273;128502;-65
2024/02/28 20:28:32;;;;;;;26.70;13.40;;;;;;;5.99;92.43;100945.20;127657;1285;114788;-64
2024/02/28 20:32:07;;;;;;;;;;;;;;;;;;;;;
2024/02/28 20:36:11;;;;;;;22.90;12.10;;;;;;;6.02;92.52;100950.15;126198;1314;114779;-66
2024/02/28 20:40:12;;;;;;;25.00;12.20;;;;;;;6.01;92.57;100951.23;125115;1304;114955;-67
2024/02/28 20:44:10;;;;;;;;;;;;;;;;;;;;;
2024/02/28 20:48:21;;;;;;;25.40;13.10;;;;;;;5.99;92.70;100948.73;125333;1314;638694;-65
2024/02/28 20:52:24;;;;;;;25.50;13.50;;;;;;;5.96;92.66;100957.33;127606;1283;127250;-67
2024/02/28 20:56:30;;;;;;;26.90;12.00;;;;;;;5.96;92.82;100960.32;126634;1311;114895;-66
2024/02/28 21:00:16;;;;;;;23.00;10.80;;;;;;;5.95;92.82;100959.81;121831;1320;5437172;-65
2024/02/28 21:04:13;;;;;;;21.20;10.10;;;;;;;5.94;92.80;100963.55;124540;1309;115024;-67
2024/02/28 21:13:06;;;;;;;23.00;10.80;;;;;;;5.96;92.93;100967.61;126357;1294;637613;-67
2024/02/28 21:16:43;;;;;;;22.80;10.50;;;;;;;5.94;92.89;100970.83;128520;1280;128844;-67
2024/02/28 21:24:48;;;;;;;21.30;10.30;;;;;;;5.90;92.89;100973.73;123951;1283;5405116;-66
2024/02/28 21:28:49;;;;;;;24.90;9.40;;;;;;;5.88;92.83;100978.02;126350;1298;115572;-66
2024/02/28 21:37:23;;;;;;;14.80;8.10;;;;;;;5.90;92.80;100970.19;126296;1295;639328;-66
2024/02/28 21:41:24;;;;;;;19.00;9.40;;;;;;;5.85;92.64;100975.27;128541;1277;128142;-65
2024/02/28 21:45:21;;;;;;;18.70;9.60;;;;;;;5.81;92.60;100972.84;126963;1286;114958;-66
2024/02/28 21:49:22;;;;;;;15.80;8.90;;;;;;;5.77;92.58;100973.46;122350;1294;5432187;-66
2024/02/28 22:01:51;;;;;;;19.10;8.70;;;;;;;5.73;92.53;100968.73;126305;1298;637887;-65
2024/02/28 22:05:54;;;;;;;15.60;8.20;;;;;;;5.69;92.58;100968.63;127861;1298;128395;-65
2024/02/28 22:09:55;;;;;;;15.70;9.10;;;;;;;5.69;92.78;100969.17;126553;1295;115073;-66
2024/02/28 22:13:56;;;;;;;15.70;8.70;;;;;;;5.69;92.76;100968.83;121994;1308;5410376;-67
2024/02/28 22:17:58;;;;;;;15.80;9.10;;;;;;;5.70;93.03;100964.38;125058;1310;115017;-66
2024/02/28 22:26:24;;;;;;;16.30;9.50;;;;;;;5.78;92.82;100967.23;125946;1299;635794;-66
2024/02/28 22:30:15;;;;;;;19.30;10.20;;;;;;;5.76;92.76;100970.45;127462;1298;128157;-67
2024/02/28 22:34:17;;;;;;;17.80;8.70;;;;;;;5.76;92.66;100968.15;127567;1300;114814;-66
2024/02/28 22:46:54;;;;;;;;;;;;;;;;;;;;;
2024/02/28 22:50:57;;;;;;;24.70;13.20;;;;;;;5.67;92.76;100965.30;127102;1293;128553;-68
2024/02/28 22:54:58;;;;;;;26.40;13.20;;;;;;;5.64;92.71;100958.09;126303;1293;115025;-67
2024/02/28 22:58:58;;;;;;;;;;;;;;;;;;;;;
2024/02/28 23:07:32;;;;;;;25.50;13.20;;;;;;;5.63;92.57;100967.86;125867;1309;638626;-66
2024/02/28 23:11:33;;;;;;;23.80;12.10;;;;;;;5.60;92.63;100967.91;127029;1290;128862;-67
2024/02/28 23:15:35;;;;;;;25.70;12.30;;;;;;;5.61;92.66;100971.98;126108;1310;115072;-68
2024/02/28 23:19:36;;;;;;;24.70;11.80;;;;;;;5.61;92.64;100972.16;121547;1305;5472063;-67
2024/02/28 23:28:10;;;;;;;24.10;11.50;;;;;;;5.60;92.43;100972.87;125784;1306;636755;-65
2024/02/28 23:32:13;;;;;;;24.80;11.70;;;;;;;5.58;92.64;100972.20;127348;1289;128234;-66
2024/02/28 23:36:10;;;;;;;22.20;11.20;;;;;;;5.58;92.56;100969.90;125624;1302;114880;-67
2024/02/28 23:40:11;;;;;;;21.20;10.10;;;;;;;5.58;92.58;100974.33;121173;1309;5447379;-66
2024/02/28 23:48:40;;;;;;;22.40;11.30;;;;;;;5.54;92.32;100969.27;125625;1303;638587;-66
2024/02/28 23:52:25;;;;;;;23.60;10.90;;;;;;;5.51;92.50;100961.16;127779;1281;128669;-66
2024/02/28 23:56:20;;;;;;;23.30;11.10;;;;;;;5.50;92.42;100964.72;127581;1288;115056;-67
